»·PEaware :: N232KW KTOA-KVNY

N232KW :: KTOA-KVNY

FLIGHT INFORMATION

Flight Status: Arrived
Operator: Privately registered:
United States
More flights under this callsign
Pilot: Sally S. (18014)
Aircraft: CESSNA 172 SKYHAWK
(C172)
More flights by this aircraft type
Origin: KTOA Zamperini
United States
Destination: KVNY Van Nuys
United States
More flights between these airports :: More routes between these airports
Route: VPLSR SMO
File this flight plan on PilotEdge
Remarks: cat 10 rating try part 1
Altitude:
(Current/Filed)
2,500ft
Speed:
(Current/Filed)
110kts
Departed: 09-Feb-18 11:33 AM
Arrived: 09-Feb-18 12:31 PM
Distance/Time
Traveled:
26nm/0:58
Distance/Time
To Go:
Arrived

Flight Plot

Page will automatically refresh every two minutes.


Map Options




Map Legend


Flown Route
Filed Route
Departure Airport
Arrival Airport
Navaid (VOR, NDB)
Fix

Horizontal Profiles

Position Reports

Time Latitude Longitude Heading Altitude Ground
Speed
09-Feb-18 11:08 33.803347 -118.344051 39 107ft 0kts
09-Feb-18 11:09 33.803347 -118.344051 39 107ft 0kts
09-Feb-18 11:10 33.803347 -118.344051 39 107ft 0kts
09-Feb-18 11:11 33.803347 -118.344051 39 107ft 0kts
09-Feb-18 11:12 33.803347 -118.344051 39 107ft 0kts
09-Feb-18 11:13 33.803347 -118.344051 39 107ft 0kts
09-Feb-18 11:14 33.803347 -118.344051 39 107ft 0kts
09-Feb-18 11:15 33.803347 -118.344051 39 107ft 0kts
09-Feb-18 11:16 33.803347 -118.344051 39 107ft 0kts
09-Feb-18 11:17 33.803347 -118.344051 39 107ft 0kts
09-Feb-18 11:18 33.803347 -118.344051 39 107ft 0kts
09-Feb-18 11:19 33.803347 -118.344051 39 107ft 0kts
09-Feb-18 11:20 33.803347 -118.344051 39 107ft 0kts
09-Feb-18 11:21 33.803347 -118.344051 39 107ft 0kts
09-Feb-18 11:22 33.803347 -118.344051 39 107ft 0kts
09-Feb-18 11:23 33.803347 -118.344051 39 107ft 0kts
09-Feb-18 11:24 33.803347 -118.344051 39 107ft 0kts
09-Feb-18 11:25 33.803347 -118.344051 39 107ft 0kts
09-Feb-18 11:26 33.803347 -118.344051 39 107ft 0kts
09-Feb-18 11:27 33.803347 -118.344051 39 107ft 0kts
09-Feb-18 11:28 33.803347 -118.344051 39 107ft 0kts
09-Feb-18 11:29 33.803347 -118.344051 39 107ft 0kts
09-Feb-18 11:30 33.803347 -118.344051 39 107ft 0kts
09-Feb-18 11:31 33.803347 -118.344051 39 107ft 0kts
09-Feb-18 11:32 33.803347 -118.344051 39 107ft 0kts
09-Feb-18 11:33 33.803347 -118.344051 39 107ft 0kts
09-Feb-18 11:34 33.802773 -118.342933 128 107ft 9kts
09-Feb-18 11:35 33.800679 -118.339844 128 107ft 7kts
09-Feb-18 11:36 33.798026 -118.335867 124 107ft 11kts
09-Feb-18 11:37 33.799131 -118.333199 33 107ft 0kts
09-Feb-18 11:38 33.799131 -118.333199 33 107ft 0kts
09-Feb-18 11:39 33.799165 -118.333172 32 107ft 4kts
09-Feb-18 11:40 33.808725 -118.346525 309 591ft 81kts
09-Feb-18 11:41 33.827430 -118.335391 351 1396ft 93kts
09-Feb-18 11:42 33.852203 -118.342610 345 2303ft 88kts
09-Feb-18 11:43 33.880239 -118.350968 346 2499ft 108kts
09-Feb-18 11:44 33.904418 -118.369580 305 2424ft 92kts
09-Feb-18 11:45 33.889543 -118.387618 192 1770ft 90kts
09-Feb-18 11:46 33.866009 -118.393059 205 1212ft 86kts
09-Feb-18 11:47 33.845622 -118.407066 159 974ft 92kts
09-Feb-18 11:48 33.828203 -118.392194 150 859ft 91kts
09-Feb-18 12:05 33.803347 -118.344051 38 107ft 0kts
09-Feb-18 12:05 33.803347 -118.344051 38 107ft 0kts
09-Feb-18 12:07 33.803347 -118.344051 38 107ft 0kts
09-Feb-18 12:08 33.803473 -118.343942 31 107ft 0kts
09-Feb-18 12:08 33.804891 -118.345932 308 107ft 16kts
09-Feb-18 12:09 33.807531 -118.346039 35 107ft 7kts
09-Feb-18 12:11 33.807563 -118.346010 36 107ft 0kts
09-Feb-18 12:12 33.804995 -118.341002 128 111ft 83kts
09-Feb-18 12:12 33.796987 -118.322155 37 917ft 92kts
09-Feb-18 12:13 33.817762 -118.339684 313 1795ft 94kts
09-Feb-18 12:14 33.835961 -118.363388 312 2496ft 109kts
09-Feb-18 12:15 33.854392 -118.392196 306 2498ft 100kts
09-Feb-18 12:16 33.863265 -118.417110 190 2297ft 101kts
09-Feb-18 12:17 33.870232 -118.419033 58 1778ft 107kts
09-Feb-18 12:18 33.871069 -118.389775 51 2519ft 98kts
09-Feb-18 12:19 33.883954 -118.359592 39 2496ft 102kts
09-Feb-18 12:20 33.904081 -118.367733 323 2498ft 73kts
09-Feb-18 12:21 33.921400 -118.382820 325 2504ft 92kts
09-Feb-18 12:22 33.945369 -118.402747 325 2500ft 110kts
09-Feb-18 12:23 33.966462 -118.420269 325 2498ft 79kts
09-Feb-18 12:24 33.982782 -118.433889 325 2496ft 62kts
09-Feb-18 12:25 34.000697 -118.448849 325 2501ft 95kts
09-Feb-18 12:26 34.024546 -118.458939 351 2498ft 87kts
09-Feb-18 12:27 34.047484 -118.462906 352 2499ft 80kts
09-Feb-18 12:28 34.069296 -118.466571 352 2499ft 78kts
09-Feb-18 12:29 34.090725 -118.470152 352 2500ft 79kts
09-Feb-18 12:30 34.113052 -118.473869 352 2501ft 86kts
09-Feb-18 12:31 34.137744 -118.477963 352 2476ft 94kts
09-Feb-18 12:32 34.163835 -118.488985 334 2175ft 104kts
09-Feb-18 12:33 34.191021 -118.496506 349 1798ft 88kts
09-Feb-18 12:34 34.214877 -118.505386 339 1754ft 87kts
09-Feb-18 12:35 34.233216 -118.500554 93 1524ft 86kts
09-Feb-18 12:36 34.215785 -118.490887 176 826ft 65kts
09-Feb-18 12:37 34.210182 -118.491092 268 804ft 0kts
09-Feb-18 12:38 34.210270 -118.491921 121 804ft 0kts
09-Feb-18 12:39 34.210265 -118.491899 94 804ft 0kts
09-Feb-18 12:40 34.210265 -118.491899 94 804ft 0kts
09-Feb-18 12:41 34.210265 -118.491899 94 804ft 0kts
09-Feb-18 12:42 34.210265 -118.491899 94 804ft 0kts
09-Feb-18 12:43 34.210265 -118.491899 94 804ft 0kts
09-Feb-18 12:44 34.210265 -118.491899 94 804ft 0kts
09-Feb-18 12:45 34.210265 -118.491899 94 804ft 0kts
09-Feb-18 12:47 34.210265 -118.491899 94 804ft 0kts
09-Feb-18 12:48 34.210265 -118.491899 94 804ft 0kts
09-Feb-18 12:49 34.210265 -118.491899 94 804ft 0kts
09-Feb-18 12:50 34.210265 -118.491899 94 804ft 0kts
09-Feb-18 12:51 34.210265 -118.491899 94 804ft 0kts
09-Feb-18 12:52 34.210265 -118.491899 94 804ft 0kts

Navigation Log

Ident Type
1. KTOA Airport
2. VPLSR Fix
3. SMO Navaid
4. KVNY Airport